Time;durP1;ratioP1;P1;durP2;ratioP2;P2;SDS_P1;SDS_P2;PMS_P1;PMS_P2;Temp;Humidity;BMP_temperature;BMP_pressure;BME280_temperature;BME280_humidity;BME280_pressure;Samples;Min_cycle;Max_cycle;Signal;HPM_P1;HPM_P2
2023/10/15 00:00:19;;;;;;;11.90;5.13;;;21.40;90.70;;;;;;7402331;19;19922;-73
2023/10/15 00:02:54;;;;;;;16.50;4.55;;;21.30;90.70;;;;;;7405400;19;19918;-74
2023/10/15 00:05:25;;;;;;;11.68;4.50;;;21.30;90.70;;;;;;7402699;19;20356;-72
2023/10/15 00:07:51;;;;;;;12.65;4.65;;;21.40;90.60;;;;;;7403797;19;20606;-73
2023/10/15 00:10:22;;;;;;;14.30;5.18;;;21.40;90.50;;;;;;7402664;19;19919;-74
2023/10/15 00:12:50;;;;;;;13.07;4.65;;;21.30;90.60;;;;;;7407816;19;20031;-73
2023/10/15 00:15:18;;;;;;;11.23;4.50;;;21.40;90.60;;;;;;7402274;19;19925;-74
2023/10/15 00:17:50;;;;;;;13.90;4.95;;;21.30;90.50;;;;;;7402957;19;19922;-74
2023/10/15 00:20:20;;;;;;;15.02;4.60;;;21.40;90.40;;;;;;7380599;19;19931;-74
2023/10/15 00:22:48;;;;;;;9.70;4.30;;;21.30;90.30;;;;;;7400599;19;19938;-73
2023/10/15 00:25:14;;;;;;;12.20;5.07;;;21.30;90.30;;;;;;7399343;19;19910;-72
2023/10/15 00:27:41;;;;;;;13.20;4.55;;;21.40;90.20;;;;;;7405298;19;19914;-74
2023/10/15 00:30:18;;;;;;;12.88;4.68;;;21.40;90.10;;;;;;7403279;19;19986;-72
2023/10/15 00:32:45;;;;;;;13.40;4.70;;;21.40;90.10;;;;;;7401561;19;20595;-73
2023/10/15 00:35:13;;;;;;;13.75;5.05;;;21.40;90.20;;;;;;7399435;19;19922;-72
2023/10/15 00:37:51;;;;;;;15.20;5.13;;;21.50;89.60;;;;;;7403388;19;20244;-73
2023/10/15 00:40:20;;;;;;;11.32;4.95;;;21.50;89.30;;;;;;7401711;19;19951;-71
2023/10/15 00:42:46;;;;;;;11.05;4.03;;;21.50;88.90;;;;;;7401610;19;19974;-73
2023/10/15 00:45:19;;;;;;;11.30;4.55;;;21.60;88.70;;;;;;7400415;19;19927;-73
2023/10/15 00:48:00;;;;;;;12.43;4.68;;;21.60;88.50;;;;;;7404083;19;19915;-74
2023/10/15 00:50:31;;;;;;;14.25;5.22;;;21.60;88.00;;;;;;7401291;19;19918;-72
2023/10/15 00:53:01;;;;;;;10.30;4.75;;;21.70;87.80;;;;;;7403863;19;19935;-72
2023/10/15 00:55:29;;;;;;;12.95;4.53;;;21.70;87.40;;;;;;7401778;19;19945;-72
2023/10/15 00:57:56;;;;;;;14.52;4.78;;;21.70;87.50;;;;;;7403514;19;19940;-73
2023/10/15 01:00:48;;;;;;;12.35;4.85;;;21.70;87.40;;;;;;7396985;19;20534;-72
2023/10/15 01:03:16;;;;;;;10.18;4.55;;;21.70;87.00;;;;;;7400225;19;19918;-73
2023/10/15 01:05:53;;;;;;;18.20;5.70;;;21.70;86.70;;;;;;7401691;19;19974;-73
2023/10/15 01:08:35;;;;;;;14.48;4.82;;;21.70;86.60;;;;;;7397335;19;19914;-73
2023/10/15 01:11:30;;;;;;;13.90;5.22;;;21.70;86.50;;;;;;7402458;19;19922;-72
2023/10/15 01:13:56;;;;;;;11.93;4.82;;;21.70;86.50;;;;;;7398736;19;19914;-72
2023/10/15 01:16:22;;;;;;;11.10;4.05;;;21.80;86.50;;;;;;7399957;19;19978;-72
2023/10/15 01:19:06;;;;;;;11.63;4.00;;;21.70;86.40;;;;;;7400587;19;19926;-73
2023/10/15 01:21:32;;;;;;;13.65;4.35;;;21.70;86.20;;;;;;7402663;19;19952;-73
2023/10/15 01:24:08;;;;;;;10.95;4.10;;;21.70;86.80;;;;;;7399813;19;19918;-73
2023/10/15 01:26:36;;;;;;;11.50;4.55;;;21.70;86.60;;;;;;7398393;19;19919;-73
2023/10/15 01:29:05;;;;;;;13.13;4.25;;;21.70;86.60;;;;;;7403335;19;19914;-74
2023/10/15 01:31:40;;;;;;;11.80;4.47;;;21.70;86.40;;;;;;7398749;19;19914;-72
2023/10/15 01:34:10;;;;;;;13.23;4.40;;;21.80;86.50;;;;;;7401190;19;19914;-72
2023/10/15 01:36:38;;;;;;;13.20;4.93;;;21.80;86.20;;;;;;7405246;19;19907;-73
2023/10/15 01:39:10;;;;;;;13.73;4.50;;;21.80;86.50;;;;;;7400722;19;19910;-72
2023/10/15 01:41:39;;;;;;;11.50;4.22;;;21.80;86.30;;;;;;7381698;19;20015;-73
2023/10/15 01:44:10;;;;;;;12.93;4.18;;;21.70;86.20;;;;;;7399718;19;20323;-72
2023/10/15 01:46:47;;;;;;;16.85;5.22;;;21.70;86.40;;;;;;7403547;19;19914;-72
2023/10/15 01:49:26;;;;;;;13.10;4.53;;;21.70;86.40;;;;;;7401472;19;20477;-73
2023/10/15 01:51:55;;;;;;;15.25;4.78;;;21.80;86.20;;;;;;7399317;19;19921;-73
2023/10/15 01:54:21;;;;;;;17.08;4.72;;;21.70;86.20;;;;;;7402381;19;19961;-74
2023/10/15 01:56:46;;;;;;;13.07;4.65;;;21.70;86.60;;;;;;7403372;19;19956;-74
2023/10/15 01:59:12;;;;;;;9.70;3.83;;;21.70;86.10;;;;;;7401516;19;19956;-74
2023/10/15 02:01:41;;;;;;;10.60;5.03;;;21.70;86.20;;;;;;7402213;19;20347;-73
2023/10/15 02:04:50;;;;;;;11.63;4.53;;;21.70;86.90;;;;;;7401347;19;19910;-73
2023/10/15 02:06:57;;;;;;;12.85;5.10;;;21.70;86.60;;;;;;7404806;19;19978;-73
2023/10/15 02:09:22;;;;;;;;;;;21.60;86.30;;;;;;7403575;19;19941;-72
2023/10/15 02:11:54;;;;;;;14.50;4.30;;;21.70;86.30;;;;;;7395202;19;19918;-72
2023/10/15 02:14:22;;;;;;;14.15;5.03;;;21.70;86.10;;;;;;7379987;19;19933;-71
2023/10/15 02:16:49;;;;;;;12.90;4.53;;;21.80;85.80;;;;;;7402063;19;19911;-71
2023/10/15 02:19:29;;;;;;;13.25;4.10;;;21.70;85.60;;;;;;7399640;19;19923;-71
2023/10/15 02:21:56;;;;;;;10.70;4.60;;;21.70;85.30;;;;;;7381711;19;19926;-71
2023/10/15 02:24:23;;;;;;;11.95;4.50;;;21.70;85.60;;;;;;7398384;19;20275;-71
2023/10/15 02:26:49;;;;;;;;;;;21.70;85.70;;;;;;7402830;19;19915;-72
2023/10/15 02:29:49;;;;;;;14.55;4.53;;;21.70;85.70;;;;;;7374713;19;20323;-72
2023/10/15 02:32:53;;;;;;;12.00;4.22;;;21.70;85.40;;;;;;7398560;19;19915;-71
2023/10/15 02:34:57;;;;;;;11.30;4.18;;;21.80;85.30;;;;;;7400600;19;19915;-71
2023/10/15 02:37:27;;;;;;;10.85;4.15;;;21.70;85.20;;;;;;7399725;19;19931;-72
2023/10/15 02:39:57;;;;;;;15.18;5.18;;;21.70;85.30;;;;;;7405107;19;19910;-71
2023/10/15 02:42:34;;;;;;;13.75;4.47;;;21.70;85.20;;;;;;7405761;19;20276;-71
2023/10/15 02:45:01;;;;;;;11.93;4.68;;;21.60;85.40;;;;;;7405612;19;20461;-72
2023/10/15 02:47:31;;;;;;;12.20;5.22;;;21.70;85.30;;;;;;7406324;19;19921;-72
2023/10/15 02:50:02;;;;;;;11.52;4.53;;;21.60;85.30;;;;;;7406576;19;19922;-72
2023/10/15 02:52:44;;;;;;;14.50;4.40;;;21.60;85.60;;;;;;7402855;19;20281;-72
2023/10/15 02:55:11;;;;;;;10.73;4.65;;;21.60;85.80;;;;;;7402504;19;19911;-73
2023/10/15 02:57:44;;;;;;;14.88;5.10;;;21.60;85.70;;;;;;7400692;19;19917;-73
2023/10/15 03:00:16;;;;;;;14.43;5.43;;;21.60;85.60;;;;;;7403804;19;19923;-73
2023/10/15 03:02:43;;;;;;;13.27;4.80;;;21.60;85.50;;;;;;7405015;19;19915;-72
2023/10/15 03:05:13;;;;;;;;;;;21.50;85.60;;;;;;7407468;19;20621;-71
2023/10/15 03:07:45;;;;;;;16.15;5.10;;;21.50;86.10;;;;;;7405871;19;20343;-72
2023/10/15 03:10:13;;;;;;;14.07;4.57;;;21.60;85.90;;;;;;7405444;19;20003;-73
2023/10/15 03:12:43;;;;;;;12.73;4.50;;;21.50;85.90;;;;;;7407058;19;19921;-73
2023/10/15 03:15:18;;;;;;;12.75;4.25;;;21.60;85.90;;;;;;7403301;19;20350;-72
2023/10/15 03:17:44;;;;;;;13.85;5.13;;;21.60;85.70;;;;;;7406070;19;19918;-72
2023/10/15 03:22:45;;;;;;;11.55;3.63;;;21.50;85.80;;;;;;7407967;19;20264;-72
2023/10/15 03:25:15;;;;;;;;;;;21.50;86.00;;;;;;7407283;19;19919;-71
2023/10/15 03:27:42;;;;;;;10.63;4.50;;;21.50;86.00;;;;;;7408513;19;19922;-72
2023/10/15 03:30:10;;;;;;;13.32;4.68;;;21.60;85.80;;;;;;7404052;19;20311;-72
2023/10/15 03:32:44;;;;;;;11.20;4.30;;;21.60;85.40;;;;;;7404060;19;19929;-72
2023/10/15 03:35:17;;;;;;;10.90;4.38;;;21.70;85.10;;;;;;7404140;19;19947;-73
2023/10/15 03:37:47;;;;;;;11.77;4.15;;;21.70;84.70;;;;;;7404415;19;19922;-72
2023/10/15 03:40:30;;;;;;;13.05;4.90;;;21.60;84.60;;;;;;7404459;19;19934;-73
2023/10/15 03:45:54;;;;;;;12.30;4.55;;;21.60;84.80;;;;;;7401667;19;19914;-72
2023/10/15 03:48:22;;;;;;;11.38;4.25;;;21.70;84.70;;;;;;7403728;19;19932;-73
2023/10/15 03:50:53;;;;;;;12.73;4.65;;;21.70;84.40;;;;;;7403794;19;19929;-73
2023/10/15 03:53:21;;;;;;;9.98;4.13;;;21.70;84.20;;;;;;7402824;19;19918;-72
2023/10/15 03:55:50;;;;;;;11.32;4.72;;;21.70;84.00;;;;;;7404884;19;19922;-72
2023/10/15 03:58:18;;;;;;;13.88;4.55;;;21.80;84.10;;;;;;7403495;19;20284;-73
2023/10/15 04:00:47;;;;;;;11.95;4.03;;;21.80;83.70;;;;;;7404632;19;19934;-73
2023/10/15 04:03:22;;;;;;;10.75;4.43;;;21.80;83.60;;;;;;7401812;19;20343;-73
2023/10/15 04:06:06;;;;;;;10.10;4.10;;;21.80;83.40;;;;;;7403991;19;20453;-73
2023/10/15 04:08:32;;;;;;;10.35;4.05;;;21.80;83.40;;;;;;7404213;19;19927;-72
2023/10/15 04:11:00;;;;;;;10.55;4.53;;;21.80;83.60;;;;;;7403445;19;20548;-73
2023/10/15 04:13:27;;;;;;;12.25;5.25;;;21.80;83.70;;;;;;7402401;19;19915;-73
2023/10/15 04:15:54;;;;;;;10.80;4.45;;;21.70;83.80;;;;;;7405653;19;19915;-72
2023/10/15 04:18:23;;;;;;;13.45;5.18;;;21.80;84.00;;;;;;7403161;19;19919;-74
2023/10/15 04:20:53;;;;;;;12.15;4.45;;;21.80;83.80;;;;;;7404435;19;19915;-72
2023/10/15 04:23:30;;;;;;;12.43;4.50;;;21.80;83.60;;;;;;7402080;19;20267;-73
2023/10/15 04:26:07;;;;;;;11.85;4.72;;;21.80;83.70;;;;;;7403514;19;19911;-73
2023/10/15 04:28:36;;;;;;;11.35;4.50;;;21.80;83.50;;;;;;7403976;19;19918;-73
2023/10/15 04:31:22;;;;;;;11.10;4.13;;;21.80;83.40;;;;;;7403587;19;19911;-73
2023/10/15 04:33:51;;;;;;;11.30;4.43;;;21.80;83.60;;;;;;7404841;19;19917;-73
2023/10/15 04:36:17;;;;;;;19.35;5.00;;;21.70;83.50;;;;;;7400450;19;19914;-73
2023/10/15 04:38:43;;;;;;;12.75;4.72;;;21.70;83.50;;;;;;7401912;19;19918;-72
2023/10/15 04:41:21;;;;;;;12.13;4.78;;;21.60;83.60;;;;;;7403817;19;19983;-71
2023/10/15 04:43:47;;;;;;;11.45;4.63;;;21.70;83.90;;;;;;7402350;19;19918;-73
2023/10/15 04:46:19;;;;;;;13.98;4.97;;;21.70;84.00;;;;;;7404248;19;19939;-73
2023/10/15 04:48:49;;;;;;;12.52;4.10;;;21.70;84.10;;;;;;7404910;19;20822;-73
2023/10/15 04:51:15;;;;;;;12.23;4.68;;;21.70;84.00;;;;;;7403463;19;19926;-72
2023/10/15 04:53:48;;;;;;;15.05;4.97;;;21.70;83.80;;;;;;7405081;19;20100;-73
2023/10/15 04:56:14;;;;;;;10.60;5.05;;;21.70;83.70;;;;;;7402671;19;19950;-74
2023/10/15 04:58:40;;;;;;;14.70;5.07;;;21.70;83.80;;;;;;7406530;19;19911;-71
2023/10/15 05:01:08;;;;;;;13.93;5.25;;;21.70;83.80;;;;;;7401356;19;19914;-72
2023/10/15 05:03:36;;;;;;;10.38;4.32;;;21.70;83.90;;;;;;7402572;19;19911;-73
2023/10/15 05:06:10;;;;;;;12.60;5.45;;;21.70;83.80;;;;;;7404984;19;19933;-72
2023/10/15 05:08:36;;;;;;;14.52;4.55;;;21.70;83.70;;;;;;7404254;19;19955;-71
2023/10/15 05:11:04;;;;;;;11.50;4.28;;;21.70;83.90;;;;;;7401591;19;19939;-72
2023/10/15 05:13:31;;;;;;;9.27;4.45;;;21.80;83.40;;;;;;7405313;19;19921;-73
2023/10/15 05:15:57;;;;;;;13.25;5.22;;;21.80;83.00;;;;;;7403120;19;19918;-72
2023/10/15 05:18:23;;;;;;;14.90;4.97;;;21.80;82.90;;;;;;7401804;19;20343;-72
2023/10/15 05:20:50;;;;;;;14.60;4.50;;;21.80;83.00;;;;;;7404253;19;19922;-73
2023/10/15 05:23:19;;;;;;;15.45;5.00;;;21.80;83.00;;;;;;7400583;19;20338;-71
2023/10/15 05:25:45;;;;;;;11.38;4.63;;;21.80;83.00;;;;;;7401767;19;19953;-71
2023/10/15 05:28:14;;;;;;;11.13;4.10;;;21.80;83.20;;;;;;7401154;19;19918;-71
2023/10/15 05:30:40;;;;;;;15.05;5.28;;;21.70;83.80;;;;;;7401438;19;20305;-72
2023/10/15 05:33:07;;;;;;;12.45;4.78;;;21.70;83.60;;;;;;7400714;19;19935;-71
2023/10/15 05:35:34;;;;;;;11.50;5.07;;;21.70;83.60;;;;;;7404901;19;19918;-73
2023/10/15 05:38:00;;;;;;;14.43;5.47;;;21.70;83.90;;;;;;7402179;19;19954;-71
2023/10/15 05:40:27;;;;;;;15.20;4.57;;;21.70;83.90;;;;;;7404096;19;19926;-72
2023/10/15 05:42:53;;;;;;;14.02;4.50;;;21.70;83.50;;;;;;7405332;19;19982;-71
2023/10/15 05:45:18;;;;;;;11.20;4.18;;;21.80;83.50;;;;;;7400057;19;19923;-73
2023/10/15 05:47:44;;;;;;;12.15;4.78;;;21.80;83.50;;;;;;7403767;19;19932;-73
2023/10/15 05:50:12;;;;;;;10.43;4.38;;;21.80;83.40;;;;;;7398605;19;20022;-72
2023/10/15 05:52:41;;;;;;;13.48;5.55;;;21.80;83.30;;;;;;7403782;19;20453;-73
2023/10/15 05:55:08;;;;;;;12.15;4.57;;;21.80;83.40;;;;;;7398246;19;19926;-73
2023/10/15 05:57:34;;;;;;;10.02;4.55;;;21.80;83.40;;;;;;7398180;19;19914;-73
2023/10/15 06:00:18;;;;;;;13.98;4.88;;;21.80;83.60;;;;;;7401529;19;19922;-72
2023/10/15 06:02:50;;;;;;;11.93;4.63;;;21.80;83.80;;;;;;7400883;19;19923;-73
2023/10/15 06:05:16;;;;;;;9.73;4.50;;;21.80;83.40;;;;;;7401392;19;19927;-73
2023/10/15 06:07:43;;;;;;;10.65;4.47;;;21.80;83.50;;;;;;7401627;19;20334;-73
2023/10/15 06:10:11;;;;;;;10.73;5.03;;;21.80;83.40;;;;;;7397174;19;20317;-73
2023/10/15 06:12:42;;;;;;;11.50;5.45;;;21.70;83.80;;;;;;7400994;19;19926;-73
2023/10/15 06:15:09;;;;;;;14.10;5.50;;;21.70;83.70;;;;;;7394576;19;20658;-73
2023/10/15 06:17:35;;;;;;;12.80;4.57;;;21.80;83.80;;;;;;7400378;19;20252;-74
2023/10/15 06:20:12;;;;;;;9.63;4.90;;;21.70;83.80;;;;;;7396925;19;19947;-73
2023/10/15 06:22:46;;;;;;;14.52;4.95;;;21.80;83.80;;;;;;7397805;19;19919;-73
2023/10/15 06:25:13;;;;;;;12.73;4.93;;;21.80;83.70;;;;;;7398647;19;19950;-71
2023/10/15 06:27:40;;;;;;;15.85;5.38;;;21.80;83.70;;;;;;7401809;19;19929;-72
2023/10/15 06:30:14;;;;;;;10.95;4.88;;;21.80;83.60;;;;;;7355110;19;20251;-72
2023/10/15 06:32:47;;;;;;;13.32;5.45;;;21.90;83.60;;;;;;7400737;19;19927;-73
2023/10/15 06:35:19;;;;;;;12.68;5.47;;;21.80;83.50;;;;;;7399134;19;19918;-73
2023/10/15 06:37:50;;;;;;;13.98;5.93;;;21.90;83.50;;;;;;7400419;19;19926;-72
2023/10/15 06:40:16;;;;;;;15.75;6.22;;;21.90;83.30;;;;;;7399219;19;20606;-72
2023/10/15 06:42:43;;;;;;;13.70;5.43;;;21.90;83.10;;;;;;7399907;19;19922;-71
2023/10/15 06:45:10;;;;;;;14.20;6.65;;;22.00;82.90;;;;;;7398943;19;20335;-73
2023/10/15 06:47:36;;;;;;;11.45;5.07;;;22.00;82.70;;;;;;7401726;19;20643;-71
2023/10/15 06:50:07;;;;;;;13.32;4.70;;;22.00;82.90;;;;;;7401664;19;19918;-71
2023/10/15 06:52:38;;;;;;;13.10;4.68;;;22.00;82.80;;;;;;7402388;19;20454;-72
2023/10/15 06:55:10;;;;;;;11.70;5.20;;;22.10;82.70;;;;;;7400039;19;21006;-72
2023/10/15 06:57:40;;;;;;;13.15;5.25;;;22.10;82.50;;;;;;7400283;19;19922;-72
2023/10/15 07:00:10;;;;;;;13.60;5.22;;;22.10;82.40;;;;;;7398130;19;19926;-72
2023/10/15 07:02:37;;;;;;;13.52;5.47;;;22.20;82.30;;;;;;7379241;19;20247;-72
2023/10/15 07:05:04;;;;;;;37.47;22.15;;;22.20;82.00;;;;;;7399651;19;19926;-73
2023/10/15 07:07:31;;;;;;;17.65;6.97;;;22.20;81.80;;;;;;7399647;19;19906;-73
2023/10/15 07:10:00;;;;;;;21.20;8.95;;;22.20;83.00;;;;;;7399786;19;19953;-71
2023/10/15 07:12:26;;;;;;;21.05;7.38;;;21.80;90.10;;;;;;7397465;19;20373;-72
2023/10/15 07:14:52;;;;;;;13.85;6.13;;;21.30;92.10;;;;;;7398391;19;19918;-73
2023/10/15 07:17:18;;;;;;;13.52;5.32;;;21.00;92.90;;;;;;7398471;19;19953;-73
2023/10/15 07:19:44;;;;;;;11.57;5.43;;;20.70;94.10;;;;;;7399682;19;19914;-73
2023/10/15 07:22:10;;;;;;;18.70;6.22;;;20.60;94.60;;;;;;7371075;19;19910;-73
2023/10/15 07:24:36;;;;;;;14.52;5.65;;;20.50;95.80;;;;;;7397895;19;19915;-72
2023/10/15 07:27:04;;;;;;;16.08;5.93;;;20.40;96.60;;;;;;7404444;19;19930;-73
2023/10/15 07:29:30;;;;;;;15.55;5.80;;;20.40;97.00;;;;;;7378421;19;21289;-71
2023/10/15 07:31:56;;;;;;;15.40;6.05;;;20.40;97.70;;;;;;7403082;19;19929;-71
2023/10/15 07:34:26;;;;;;;15.40;6.07;;;20.50;98.00;;;;;;7403620;19;19935;-72
2023/10/15 07:36:56;;;;;;;13.55;6.00;;;20.60;97.60;;;;;;7404134;19;19922;-72
2023/10/15 07:39:27;;;;;;;13.00;5.25;;;20.50;97.70;;;;;;7401353;19;19919;-72
2023/10/15 07:41:53;;;;;;;14.50;6.13;;;20.50;98.20;;;;;;7400384;19;19910;-72
2023/10/15 07:44:19;;;;;;;14.05;6.47;;;20.60;98.60;;;;;;7407417;19;20313;-72
2023/10/15 07:46:45;;;;;;;15.63;6.53;;;20.70;98.30;;;;;;7398443;19;19927;-72
2023/10/15 07:49:15;;;;;;;13.30;5.47;;;20.80;97.90;;;;;;7401176;19;19921;-72
2023/10/15 07:51:41;;;;;;;12.13;5.78;;;20.90;97.60;;;;;;7402950;19;19955;-73
2023/10/15 07:54:07;;;;;;;14.25;6.05;;;21.00;97.70;;;;;;7401667;19;20381;-72
2023/10/15 07:56:34;;;;;;;15.70;5.43;;;21.10;97.50;;;;;;7403963;19;20247;-72
2023/10/15 07:59:04;;;;;;;16.98;6.20;;;21.20;97.10;;;;;;7400919;19;19987;-72
2023/10/15 08:01:30;;;;;;;17.08;5.95;;;21.20;96.70;;;;;;7401495;19;19922;-73
2023/10/15 08:03:59;;;;;;;17.70;6.13;;;21.30;96.60;;;;;;7403199;19;19952;-72
2023/10/15 08:06:26;;;;;;;18.77;8.32;;;21.30;95.90;;;;;;7401471;19;19926;-73
2023/10/15 08:08:51;;;;;;;14.60;6.18;;;21.30;95.50;;;;;;7404412;19;19918;-72
2023/10/15 08:11:17;;;;;;;17.83;5.80;;;21.50;95.30;;;;;;7402991;19;20016;-72
2023/10/15 08:13:43;;;;;;;13.85;6.32;;;21.50;95.30;;;;;;7403400;19;19919;-73
2023/10/15 08:16:09;;;;;;;16.33;7.03;;;21.50;94.90;;;;;;7402515;19;19922;-73
2023/10/15 08:18:35;;;;;;;15.25;6.47;;;21.60;94.40;;;;;;7403758;19;19915;-72
2023/10/15 08:21:01;;;;;;;12.80;6.40;;;21.70;94.30;;;;;;7401967;19;19930;-71
2023/10/15 08:23:27;;;;;;;16.33;7.38;;;21.70;93.20;;;;;;7401099;19;20337;-71
2023/10/15 08:25:53;;;;;;;16.23;6.97;;;21.70;92.90;;;;;;7403403;19;20339;-72
2023/10/15 08:28:19;;;;;;;15.68;7.25;;;21.80;92.60;;;;;;7403985;19;20276;-71
2023/10/15 08:30:45;;;;;;;19.20;7.28;;;21.80;91.80;;;;;;7404141;19;19918;-72
2023/10/15 08:33:12;;;;;;;16.35;7.30;;;22.00;91.90;;;;;;7403981;19;19939;-71
2023/10/15 08:35:40;;;;;;;15.93;7.45;;;22.00;91.50;;;;;;7401814;19;20364;-72
2023/10/15 08:38:09;;;;;;;18.95;6.63;;;21.90;91.70;;;;;;7401257;19;19926;-73
2023/10/15 08:40:41;;;;;;;14.38;7.70;;;22.00;91.70;;;;;;7401523;19;19914;-72
2023/10/15 08:43:12;;;;;;;17.35;7.90;;;21.90;91.50;;;;;;7402286;19;19934;-72
2023/10/15 08:45:38;;;;;;;16.23;7.43;;;21.80;91.50;;;;;;7402843;19;20324;-73
2023/10/15 08:48:10;;;;;;;17.40;7.45;;;21.80;91.30;;;;;;7401615;19;20583;-72
2023/10/15 08:50:37;;;;;;;17.17;7.88;;;21.70;90.80;;;;;;7402869;19;19935;-73
2023/10/15 08:53:04;;;;;;;;;;;21.50;90.80;;;;;;7404434;19;19911;-73
2023/10/15 08:55:33;;;;;;;20.25;7.93;;;21.40;90.80;;;;;;7404778;19;19918;-73
2023/10/15 08:58:00;;;;;;;14.88;7.57;;;21.30;90.80;;;;;;7404575;19;20446;-72
2023/10/15 09:00:26;;;;;;;13.23;7.63;;;21.30;91.40;;;;;;7397116;19;19914;-72
2023/10/15 09:02:54;;;;;;;15.30;7.15;;;21.30;91.20;;;;;;7401910;19;20266;-72
2023/10/15 09:05:20;;;;;;;16.85;7.55;;;21.30;91.10;;;;;;7400968;19;19919;-73
2023/10/15 09:07:47;;;;;;;16.40;6.80;;;21.30;91.20;;;;;;7404614;19;19954;-73
2023/10/15 09:10:16;;;;;;;14.13;6.43;;;21.30;91.40;;;;;;7399768;19;19918;-72
2023/10/15 09:12:42;;;;;;;14.75;6.70;;;21.30;91.20;;;;;;7401075;19;19918;-73
2023/10/15 09:15:17;;;;;;;16.50;6.75;;;21.20;91.20;;;;;;7400277;19;19986;-72
2023/10/15 09:17:52;;;;;;;12.57;6.30;;;21.20;91.50;;;;;;7400868;19;19918;-72
2023/10/15 09:20:26;;;;;;;14.52;6.10;;;21.20;91.90;;;;;;7401202;19;19943;-72
2023/10/15 09:22:58;;;;;;;14.27;6.03;;;21.00;92.30;;;;;;7395784;19;20644;-73
2023/10/15 09:25:25;;;;;;;;;;;20.90;93.30;;;;;;7398347;19;19918;-72
2023/10/15 09:27:53;;;;;;;13.75;6.20;;;20.70;93.70;;;;;;7395798;19;19915;-72
2023/10/15 09:30:27;;;;;;;12.90;5.82;;;20.70;93.80;;;;;;7401149;19;20388;-73
2023/10/15 09:32:54;;;;;;;11.00;5.32;;;20.80;93.80;;;;;;7398277;19;20287;-73
2023/10/15 09:35:21;;;;;;;13.20;5.35;;;20.60;94.30;;;;;;7402243;19;19911;-72
2023/10/15 09:37:47;;;;;;;10.73;5.05;;;20.70;94.70;;;;;;7398502;19;20312;-72
2023/10/15 09:40:19;;;;;;;13.80;4.85;;;20.70;95.20;;;;;;7393742;19;20022;-73
2023/10/15 09:42:53;;;;;;;9.40;3.33;;;20.50;95.90;;;;;;7397417;19;20295;-72
2023/10/15 09:45:19;;;;;;;12.63;4.75;;;20.20;96.70;;;;;;7400252;19;19948;-73
2023/10/15 09:47:52;;;;;;;11.63;4.20;;;20.10;97.80;;;;;;7390001;19;20350;-74
2023/10/15 09:50:25;;;;;;;12.55;3.88;;;20.20;98.20;;;;;;7381540;19;19919;-74
2023/10/15 09:53:00;;;;;;;9.90;3.83;;;20.30;98.30;;;;;;7382815;19;19919;-74
2023/10/15 09:55:28;;;;;;;7.45;3.28;;;20.40;98.00;;;;;;7398318;19;20605;-73
2023/10/15 09:58:10;;;;;;;10.60;3.50;;;20.50;97.60;;;;;;7400621;19;20359;-74
2023/10/15 10:00:46;;;;;;;13.18;4.55;;;20.60;97.40;;;;;;7397337;19;19922;-74
2023/10/15 10:03:29;;;;;;;12.23;4.53;;;20.50;97.30;;;;;;7398868;19;19919;-74
2023/10/15 10:06:17;;;;;;;12.38;3.78;;;20.60;97.30;;;;;;7397539;19;19925;-74
2023/10/15 10:08:58;;;;;;;12.43;3.58;;;20.70;96.90;;;;;;7398418;19;19918;-74
2023/10/15 10:11:36;;;;;;;10.25;3.65;;;20.70;96.80;;;;;;7397126;19;19929;-74
2023/10/15 10:14:10;;;;;;;9.60;3.60;;;20.70;96.70;;;;;;7389242;19;19919;-74
2023/10/15 10:16:37;;;;;;;10.82;4.03;;;20.60;96.70;;;;;;7398088;19;19986;-74
2023/10/15 10:19:04;;;;;;;8.65;3.40;;;20.40;96.80;;;;;;7380103;19;19918;-73
2023/10/15 10:21:31;;;;;;;11.05;3.42;;;20.40;97.20;;;;;;7387601;19;19918;-75
2023/10/15 10:23:58;;;;;;;12.05;3.40;;;20.50;97.00;;;;;;7393524;19;19918;-74
2023/10/15 10:26:27;;;;;;;9.93;3.35;;;20.40;96.90;;;;;;7387865;19;19925;-74
2023/10/15 10:28:59;;;;;;;10.75;3.92;;;20.40;97.10;;;;;;7395026;19;19914;-74
2023/10/15 10:31:29;;;;;;;8.75;3.60;;;20.30;97.60;;;;;;7386175;19;19978;-75
2023/10/15 10:34:01;;;;;;;8.00;2.72;;;20.30;97.80;;;;;;7396326;19;19986;-76
2023/10/15 10:36:30;;;;;;;9.95;3.28;;;20.30;97.80;;;;;;7396029;19;20327;-75
2023/10/15 10:39:13;;;;;;;8.68;2.88;;;20.10;97.30;;;;;;7392179;19;19983;-75
2023/10/15 10:41:40;;;;;;;11.50;3.30;;;20.10;97.30;;;;;;7389097;19;19922;-74
2023/10/15 10:44:07;;;;;;;8.25;2.33;;;20.00;97.10;;;;;;7393257;19;19928;-75
2023/10/15 10:46:44;;;;;;;9.75;2.70;;;20.00;97.20;;;;;;7387853;19;20368;-75
2023/10/15 10:49:16;;;;;;;7.07;3.00;;;19.90;97.60;;;;;;7382098;19;19915;-73
2023/10/15 10:51:43;;;;;;;13.23;2.63;;;19.90;97.90;;;;;;7386685;19;20330;-73
2023/10/15 10:54:09;;;;;;;9.55;2.85;;;19.70;98.10;;;;;;7389743;19;19926;-74
2023/10/15 10:56:38;;;;;;;7.68;2.08;;;19.60;98.00;;;;;;7395279;19;19919;-74
2023/10/15 10:59:06;;;;;;;9.15;2.33;;;19.60;98.00;;;;;;7386398;19;19930;-73
2023/10/15 11:01:37;;;;;;;9.52;1.98;;;19.50;98.30;;;;;;7395896;19;19946;-74
2023/10/15 11:04:04;;;;;;;5.95;2.17;;;19.60;98.40;;;;;;7398309;19;19922;-75
2023/10/15 11:06:32;;;;;;;9.45;2.40;;;19.80;98.60;;;;;;7373476;19;19987;-73
2023/10/15 11:08:58;;;;;;;10.45;2.60;;;19.90;98.60;;;;;;7401069;19;20268;-73
2023/10/15 11:11:24;;;;;;;9.40;2.53;;;20.00;98.50;;;;;;7404378;19;19950;-73
2023/10/15 11:13:50;;;;;;;6.80;2.53;;;20.10;98.50;;;;;;7398943;19;19915;-73
2023/10/15 11:16:16;;;;;;;7.70;2.38;;;20.20;98.30;;;;;;7395434;19;19918;-75
2023/10/15 11:18:45;;;;;;;7.53;2.45;;;20.40;98.10;;;;;;7395340;19;20266;-73
2023/10/15 11:21:11;;;;;;;6.63;2.35;;;20.40;97.90;;;;;;7390874;19;19923;-74
2023/10/15 11:23:38;;;;;;;8.40;2.33;;;20.40;97.80;;;;;;7390906;19;20325;-75
2023/10/15 11:26:04;;;;;;;7.25;1.98;;;20.50;98.00;;;;;;7395230;19;19935;-74
2023/10/15 11:28:31;;;;;;;9.75;2.70;;;20.40;97.00;;;;;;7392843;19;20668;-76
2023/10/15 11:30:57;;;;;;;12.30;2.17;;;20.30;97.20;;;;;;7400979;19;19922;-75
2023/10/15 11:33:23;;;;;;;7.32;2.28;;;20.20;96.80;;;;;;7403723;19;19945;-74
2023/10/15 11:35:51;;;;;;;8.48;2.38;;;20.10;96.50;;;;;;7404341;19;19945;-74
2023/10/15 11:38:17;;;;;;;9.77;2.28;;;20.30;96.50;;;;;;7404748;19;20431;-75
2023/10/15 11:40:45;;;;;;;9.15;3.47;;;20.40;96.00;;;;;;7402461;19;19940;-74
2023/10/15 11:43:18;;;;;;;8.27;2.08;;;20.40;95.10;;;;;;7400208;19;19927;-74
2023/10/15 11:45:47;;;;;;;11.32;2.78;;;20.50;94.00;;;;;;7403248;19;19922;-74
2023/10/15 11:48:14;;;;;;;9.02;2.20;;;20.50;94.10;;;;;;7403612;19;20802;-74
2023/10/15 11:50:41;;;;;;;14.38;2.63;;;20.60;93.30;;;;;;7406261;19;19910;-74
2023/10/15 11:53:20;;;;;;;10.05;2.50;;;20.70;93.10;;;;;;7402277;19;19915;-74
2023/10/15 11:55:52;;;;;;;13.57;2.53;;;20.70;92.80;;;;;;7404605;19;19918;-73
2023/10/15 11:58:19;;;;;;;8.20;2.50;;;20.70;92.80;;;;;;7402475;19;20352;-73
2023/10/15 12:00:48;;;;;;;9.57;2.22;;;20.60;92.60;;;;;;7401414;19;19982;-73
2023/10/15 12:03:20;;;;;;;11.20;2.35;;;20.80;92.20;;;;;;7401579;19;19933;-75
2023/10/15 12:05:47;;;;;;;14.68;2.58;;;20.90;92.10;;;;;;7403349;19;19939;-75
2023/10/15 12:08:13;;;;;;;10.80;2.75;;;21.00;91.70;;;;;;7400538;19;19922;-73
2023/10/15 12:10:45;;;;;;;10.77;2.65;;;21.10;91.70;;;;;;7403512;19;19922;-74
2023/10/15 12:13:15;;;;;;;14.88;2.83;;;21.20;91.60;;;;;;7397870;19;19946;-76
2023/10/15 12:15:41;;;;;;;9.68;2.53;;;21.20;90.90;;;;;;7405014;19;19918;-74
2023/10/15 12:18:07;;;;;;;11.65;2.55;;;21.10;91.00;;;;;;7401652;19;19918;-73
2023/10/15 12:20:33;;;;;;;8.10;2.35;;;21.20;91.10;;;;;;7405536;19;19921;-72
2023/10/15 12:22:59;;;;;;;8.80;2.20;;;21.10;90.90;;;;;;7403660;19;19911;-74
2023/10/15 12:25:25;;;;;;;11.43;2.25;;;21.00;91.50;;;;;;7400167;19;19935;-72
2023/10/15 12:27:51;;;;;;;10.60;2.85;;;20.80;90.80;;;;;;7403197;19;19929;-73
2023/10/15 12:30:23;;;;;;;11.82;2.95;;;20.90;91.40;;;;;;7399582;19;19906;-73
2023/10/15 12:32:55;;;;;;;10.25;2.70;;;21.00;90.70;;;;;;7398836;19;19910;-73
2023/10/15 12:35:22;;;;;;;11.68;2.95;;;21.10;90.20;;;;;;7399002;19;19926;-74
2023/10/15 12:38:05;;;;;;;10.13;2.80;;;21.00;89.60;;;;;;7402637;19;19918;-72
2023/10/15 12:40:34;;;;;;;12.57;2.53;;;21.10;90.00;;;;;;7395044;19;19922;-73
2023/10/15 12:43:01;;;;;;;11.48;2.58;;;21.40;87.50;;;;;;7400933;19;19918;-74
2023/10/15 12:45:26;;;;;;;;;;;21.70;86.10;;;;;;7403620;19;20021;-73
2023/10/15 12:47:52;;;;;;;12.60;2.55;;;21.80;83.70;;;;;;7401188;19;19949;-72
2023/10/15 12:50:19;;;;;;;10.30;2.72;;;21.80;82.30;;;;;;7397025;19;19910;-73
2023/10/15 12:52:46;;;;;;;8.85;2.50;;;21.80;81.50;;;;;;7400368;19;20275;-73
2023/10/15 12:55:18;;;;;;;11.63;2.67;;;21.80;81.20;;;;;;7398777;19;20256;-73
2023/10/15 12:57:46;;;;;;;9.43;2.70;;;21.90;80.00;;;;;;7402382;19;19993;-73